sensor_id;sensor_type;location;lat;lon;timestamp;P1;durP1;ratioP1;P2;durP2;ratioP2
76953;SDS011;65893;51.698;-0.292;2023-02-28T00:00:33;7.65;;;3.30;;
76953;SDS011;65893;51.698;-0.292;2023-02-28T00:02:59;8.57;;;2.63;;
76953;SDS011;65893;51.698;-0.292;2023-02-28T00:05:25;7.22;;;2.22;;
76953;SDS011;65893;51.698;-0.292;2023-02-28T00:07:52;13.10;;;2.90;;
76953;SDS011;65893;51.698;-0.292;2023-02-28T00:10:19;7.32;;;2.70;;
76953;SDS011;65893;51.698;-0.292;2023-02-28T00:12:52;9.38;;;2.67;;
76953;SDS011;65893;51.698;-0.292;2023-02-28T00:15:19;6.30;;;2.53;;
76953;SDS011;65893;51.698;-0.292;2023-02-28T00:17:46;6.65;;;2.30;;
76953;SDS011;65893;51.698;-0.292;2023-02-28T00:20:12;5.88;;;2.75;;
76953;SDS011;65893;51.698;-0.292;2023-02-28T00:22:39;10.30;;;2.80;;
76953;SDS011;65893;51.698;-0.292;2023-02-28T00:25:06;7.68;;;2.28;;
76953;SDS011;65893;51.698;-0.292;2023-02-28T00:27:33;10.00;;;2.78;;
76953;SDS011;65893;51.698;-0.292;2023-02-28T00:29:59;8.13;;;2.58;;
76953;SDS011;65893;51.698;-0.292;2023-02-28T00:32:25;8.65;;;2.90;;
76953;SDS011;65893;51.698;-0.292;2023-02-28T00:37:17;11.45;;;2.70;;
76953;SDS011;65893;51.698;-0.292;2023-02-28T00:39:43;10.80;;;3.05;;
76953;SDS011;65893;51.698;-0.292;2023-02-28T00:42:09;12.65;;;3.67;;
76953;SDS011;65893;51.698;-0.292;2023-02-28T00:47:01;4.65;;;2.30;;
76953;SDS011;65893;51.698;-0.292;2023-02-28T00:49:27;8.00;;;3.13;;
76953;SDS011;65893;51.698;-0.292;2023-02-28T00:51:54;9.43;;;3.15;;
76953;SDS011;65893;51.698;-0.292;2023-02-28T00:54:21;11.02;;;3.38;;
76953;SDS011;65893;51.698;-0.292;2023-02-28T00:56:47;8.20;;;2.58;;
76953;SDS011;65893;51.698;-0.292;2023-02-28T00:59:14;15.30;;;3.08;;
76953;SDS011;65893;51.698;-0.292;2023-02-28T01:01:40;6.50;;;2.83;;
76953;SDS011;65893;51.698;-0.292;2023-02-28T01:06:32;12.93;;;2.88;;
76953;SDS011;65893;51.698;-0.292;2023-02-28T01:08:58;9.48;;;3.03;;
76953;SDS011;65893;51.698;-0.292;2023-02-28T01:11:24;10.98;;;3.47;;
76953;SDS011;65893;51.698;-0.292;2023-02-28T01:16:16;16.08;;;3.70;;
76953;SDS011;65893;51.698;-0.292;2023-02-28T01:18:43;7.72;;;2.70;;
76953;SDS011;65893;51.698;-0.292;2023-02-28T01:21:13;10.70;;;2.80;;
76953;SDS011;65893;51.698;-0.292;2023-02-28T01:23:40;16.50;;;4.07;;
76953;SDS011;65893;51.698;-0.292;2023-02-28T01:28:32;7.97;;;3.00;;
76953;SDS011;65893;51.698;-0.292;2023-02-28T01:33:24;15.50;;;3.35;;
76953;SDS011;65893;51.698;-0.292;2023-02-28T01:35:57;7.95;;;3.10;;
76953;SDS011;65893;51.698;-0.292;2023-02-28T01:38:23;8.65;;;3.08;;
76953;SDS011;65893;51.698;-0.292;2023-02-28T01:40:51;11.90;;;3.53;;
76953;SDS011;65893;51.698;-0.292;2023-02-28T01:43:21;12.13;;;3.80;;
76953;SDS011;65893;51.698;-0.292;2023-02-28T01:45:48;18.50;;;4.07;;
76953;SDS011;65893;51.698;-0.292;2023-02-28T01:50:41;12.63;;;3.20;;
76953;SDS011;65893;51.698;-0.292;2023-02-28T01:53:09;14.82;;;4.00;;
76953;SDS011;65893;51.698;-0.292;2023-02-28T01:55:37;10.35;;;3.58;;
76953;SDS011;65893;51.698;-0.292;2023-02-28T01:58:04;7.78;;;3.58;;
76953;SDS011;65893;51.698;-0.292;2023-02-28T02:00:31;8.98;;;3.60;;
76953;SDS011;65893;51.698;-0.292;2023-02-28T02:05:24;11.93;;;4.13;;
76953;SDS011;65893;51.698;-0.292;2023-02-28T02:08:12;11.02;;;4.13;;
76953;SDS011;65893;51.698;-0.292;2023-02-28T02:10:42;10.65;;;3.35;;
76953;SDS011;65893;51.698;-0.292;2023-02-28T02:18:04;10.77;;;4.50;;
76953;SDS011;65893;51.698;-0.292;2023-02-28T02:20:36;18.50;;;5.40;;
76953;SDS011;65893;51.698;-0.292;2023-02-28T02:23:28;9.35;;;4.90;;
76953;SDS011;65893;51.698;-0.292;2023-02-28T02:25:53;19.30;;;5.22;;
76953;SDS011;65893;51.698;-0.292;2023-02-28T02:38:36;13.43;;;4.57;;
76953;SDS011;65893;51.698;-0.292;2023-02-28T02:41:16;14.45;;;4.78;;
76953;SDS011;65893;51.698;-0.292;2023-02-28T02:46:19;13.95;;;5.75;;
76953;SDS011;65893;51.698;-0.292;2023-02-28T02:48:45;10.90;;;5.22;;
76953;SDS011;65893;51.698;-0.292;2023-02-28T02:51:16;13.88;;;5.93;;
76953;SDS011;65893;51.698;-0.292;2023-02-28T02:53:53;11.35;;;4.78;;
76953;SDS011;65893;51.698;-0.292;2023-02-28T02:56:21;14.88;;;5.60;;
76953;SDS011;65893;51.698;-0.292;2023-02-28T02:58:49;16.88;;;6.53;;
76953;SDS011;65893;51.698;-0.292;2023-02-28T03:01:20;13.05;;;5.43;;
76953;SDS011;65893;51.698;-0.292;2023-02-28T03:03:53;16.33;;;6.07;;
76953;SDS011;65893;51.698;-0.292;2023-02-28T03:06:20;22.55;;;6.13;;
76953;SDS011;65893;51.698;-0.292;2023-02-28T03:11:12;14.70;;;4.68;;
76953;SDS011;65893;51.698;-0.292;2023-02-28T03:21:31;20.58;;;5.88;;
76953;SDS011;65893;51.698;-0.292;2023-02-28T03:24:07;17.05;;;5.82;;
76953;SDS011;65893;51.698;-0.292;2023-02-28T03:26:34;14.80;;;5.97;;
76953;SDS011;65893;51.698;-0.292;2023-02-28T03:29:04;12.68;;;5.40;;
76953;SDS011;65893;51.698;-0.292;2023-02-28T03:31:37;13.55;;;5.53;;
76953;SDS011;65893;51.698;-0.292;2023-02-28T03:36:33;13.68;;;5.90;;
76953;SDS011;65893;51.698;-0.292;2023-02-28T03:39:09;12.85;;;4.47;;
76953;SDS011;65893;51.698;-0.292;2023-02-28T03:41:55;15.40;;;5.75;;
76953;SDS011;65893;51.698;-0.292;2023-02-28T03:44:24;17.00;;;5.97;;
76953;SDS011;65893;51.698;-0.292;2023-02-28T03:46:54;18.40;;;5.78;;
76953;SDS011;65893;51.698;-0.292;2023-02-28T03:49:25;16.15;;;6.25;;
76953;SDS011;65893;51.698;-0.292;2023-02-28T03:51:52;15.38;;;5.78;;
76953;SDS011;65893;51.698;-0.292;2023-02-28T03:54:22;17.85;;;6.15;;
76953;SDS011;65893;51.698;-0.292;2023-02-28T03:56:57;13.82;;;6.18;;
76953;SDS011;65893;51.698;-0.292;2023-02-28T03:59:34;12.80;;;4.72;;
76953;SDS011;65893;51.698;-0.292;2023-02-28T04:02:03;12.48;;;4.38;;
76953;SDS011;65893;51.698;-0.292;2023-02-28T04:04:29;15.98;;;4.75;;
76953;SDS011;65893;51.698;-0.292;2023-02-28T04:07:13;8.98;;;4.13;;
76953;SDS011;65893;51.698;-0.292;2023-02-28T04:09:40;15.80;;;5.30;;
76953;SDS011;65893;51.698;-0.292;2023-02-28T04:12:06;13.68;;;4.50;;
76953;SDS011;65893;51.698;-0.292;2023-02-28T04:14:32;16.63;;;4.13;;
76953;SDS011;65893;51.698;-0.292;2023-02-28T04:19:24;15.68;;;3.60;;
76953;SDS011;65893;51.698;-0.292;2023-02-28T04:21:51;11.15;;;4.65;;
76953;SDS011;65893;51.698;-0.292;2023-02-28T04:24:21;14.98;;;4.85;;
76953;SDS011;65893;51.698;-0.292;2023-02-28T04:26:48;8.77;;;3.88;;
76953;SDS011;65893;51.698;-0.292;2023-02-28T04:29:19;12.55;;;5.55;;
76953;SDS011;65893;51.698;-0.292;2023-02-28T04:31:45;10.75;;;4.40;;
76953;SDS011;65893;51.698;-0.292;2023-02-28T04:36:37;9.90;;;4.28;;
76953;SDS011;65893;51.698;-0.292;2023-02-28T04:41:29;9.27;;;3.67;;
76953;SDS011;65893;51.698;-0.292;2023-02-28T04:43:55;11.30;;;4.18;;
76953;SDS011;65893;51.698;-0.292;2023-02-28T04:48:47;11.60;;;3.53;;
76953;SDS011;65893;51.698;-0.292;2023-02-28T04:51:14;10.85;;;4.65;;
76953;SDS011;65893;51.698;-0.292;2023-02-28T04:53:41;9.07;;;4.22;;
76953;SDS011;65893;51.698;-0.292;2023-02-28T04:56:08;15.15;;;5.15;;
76953;SDS011;65893;51.698;-0.292;2023-02-28T04:58:34;11.23;;;4.15;;
76953;SDS011;65893;51.698;-0.292;2023-02-28T05:03:26;3.80;;;1.50;;
76953;SDS011;65893;51.698;-0.292;2023-02-28T05:08:18;4.88;;;1.83;;
76953;SDS011;65893;51.698;-0.292;2023-02-28T05:13:12;8.07;;;2.80;;
76953;SDS011;65893;51.698;-0.292;2023-02-28T05:15:38;13.57;;;5.07;;
76953;SDS011;65893;51.698;-0.292;2023-02-28T05:20:30;14.95;;;5.50;;
76953;SDS011;65893;51.698;-0.292;2023-02-28T05:25:22;23.00;;;6.82;;
76953;SDS011;65893;51.698;-0.292;2023-02-28T05:27:48;16.30;;;7.10;;
76953;SDS011;65893;51.698;-0.292;2023-02-28T05:32:41;28.17;;;6.60;;
76953;SDS011;65893;51.698;-0.292;2023-02-28T05:35:10;41.35;;;7.70;;
76953;SDS011;65893;51.698;-0.292;2023-02-28T05:37:36;28.73;;;6.90;;
76953;SDS011;65893;51.698;-0.292;2023-02-28T05:40:03;24.50;;;9.35;;
76953;SDS011;65893;51.698;-0.292;2023-02-28T05:45:01;39.42;;;6.63;;
76953;SDS011;65893;51.698;-0.292;2023-02-28T05:49:53;42.03;;;8.82;;
76953;SDS011;65893;51.698;-0.292;2023-02-28T05:52:19;32.08;;;6.85;;
76953;SDS011;65893;51.698;-0.292;2023-02-28T05:54:46;60.22;;;9.30;;
76953;SDS011;65893;51.698;-0.292;2023-02-28T05:57:12;70.10;;;10.45;;
76953;SDS011;65893;51.698;-0.292;2023-02-28T05:59:38;110.85;;;11.02;;
76953;SDS011;65893;51.698;-0.292;2023-02-28T06:02:05;102.53;;;12.00;;
76953;SDS011;65893;51.698;-0.292;2023-02-28T06:04:31;29.70;;;8.65;;
76953;SDS011;65893;51.698;-0.292;2023-02-28T06:06:57;87.57;;;10.77;;
76953;SDS011;65893;51.698;-0.292;2023-02-28T06:09:23;53.80;;;9.80;;
76953;SDS011;65893;51.698;-0.292;2023-02-28T06:11:50;31.30;;;6.25;;
76953;SDS011;65893;51.698;-0.292;2023-02-28T06:16:41;13.00;;;4.07;;
76953;SDS011;65893;51.698;-0.292;2023-02-28T06:21:33;13.52;;;4.90;;
76953;SDS011;65893;51.698;-0.292;2023-02-28T06:23:59;4.10;;;1.98;;
76953;SDS011;65893;51.698;-0.292;2023-02-28T06:28:51;11.18;;;4.45;;
76953;SDS011;65893;51.698;-0.292;2023-02-28T06:33:44;10.95;;;4.03;;
76953;SDS011;65893;51.698;-0.292;2023-02-28T06:36:11;10.70;;;4.97;;
76953;SDS011;65893;51.698;-0.292;2023-02-28T06:38:37;14.00;;;5.00;;
76953;SDS011;65893;51.698;-0.292;2023-02-28T06:41:04;11.80;;;5.53;;
76953;SDS011;65893;51.698;-0.292;2023-02-28T06:43:32;13.25;;;5.43;;
76953;SDS011;65893;51.698;-0.292;2023-02-28T06:45:59;14.45;;;6.00;;
76953;SDS011;65893;51.698;-0.292;2023-02-28T06:48:26;17.17;;;5.90;;
76953;SDS011;65893;51.698;-0.292;2023-02-28T06:50:52;15.90;;;6.57;;
76953;SDS011;65893;51.698;-0.292;2023-02-28T06:53:18;14.95;;;5.53;;
76953;SDS011;65893;51.698;-0.292;2023-02-28T06:55:45;12.38;;;4.95;;
76953;SDS011;65893;51.698;-0.292;2023-02-28T07:00:43;13.05;;;5.15;;
76953;SDS011;65893;51.698;-0.292;2023-02-28T07:03:10;13.63;;;4.88;;
76953;SDS011;65893;51.698;-0.292;2023-02-28T07:05:37;12.90;;;5.22;;
76953;SDS011;65893;51.698;-0.292;2023-02-28T07:08:03;13.05;;;5.18;;
76953;SDS011;65893;51.698;-0.292;2023-02-28T07:10:30;17.55;;;6.28;;
76953;SDS011;65893;51.698;-0.292;2023-02-28T07:12:57;9.95;;;4.10;;
76953;SDS011;65893;51.698;-0.292;2023-02-28T07:15:23;66.57;;;12.80;;
76953;SDS011;65893;51.698;-0.292;2023-02-28T07:17:49;11.55;;;4.47;;
76953;SDS011;65893;51.698;-0.292;2023-02-28T07:20:16;12.20;;;5.20;;
76953;SDS011;65893;51.698;-0.292;2023-02-28T07:22:42;11.73;;;4.47;;
76953;SDS011;65893;51.698;-0.292;2023-02-28T07:25:08;10.13;;;4.63;;
76953;SDS011;65893;51.698;-0.292;2023-02-28T07:27:34;11.73;;;4.47;;
76953;SDS011;65893;51.698;-0.292;2023-02-28T07:32:28;11.63;;;3.88;;
76953;SDS011;65893;51.698;-0.292;2023-02-28T07:34:54;10.23;;;4.18;;
76953;SDS011;65893;51.698;-0.292;2023-02-28T07:39:46;10.65;;;4.00;;
76953;SDS011;65893;51.698;-0.292;2023-02-28T07:42:12;8.57;;;3.95;;
76953;SDS011;65893;51.698;-0.292;2023-02-28T07:44:39;8.00;;;3.63;;
76953;SDS011;65893;51.698;-0.292;2023-02-28T07:47:09;13.45;;;4.90;;
76953;SDS011;65893;51.698;-0.292;2023-02-28T07:49:36;10.90;;;4.25;;
76953;SDS011;65893;51.698;-0.292;2023-02-28T07:52:03;9.80;;;3.22;;
76953;SDS011;65893;51.698;-0.292;2023-02-28T07:54:29;9.75;;;2.55;;
76953;SDS011;65893;51.698;-0.292;2023-02-28T07:56:55;6.88;;;2.78;;
76953;SDS011;65893;51.698;-0.292;2023-02-28T08:01:47;8.30;;;3.58;;
76953;SDS011;65893;51.698;-0.292;2023-02-28T08:04:15;4.20;;;1.70;;
76953;SDS011;65893;51.698;-0.292;2023-02-28T08:06:41;0.45;;;0.28;;
76953;SDS011;65893;51.698;-0.292;2023-02-28T08:11:33;5.35;;;2.00;;
76953;SDS011;65893;51.698;-0.292;2023-02-28T08:13:59;3.72;;;1.75;;
76953;SDS011;65893;51.698;-0.292;2023-02-28T08:16:25;4.30;;;1.88;;
76953;SDS011;65893;51.698;-0.292;2023-02-28T08:18:51;11.93;;;2.63;;
76953;SDS011;65893;51.698;-0.292;2023-02-28T08:21:18;13.10;;;3.15;;
76953;SDS011;65893;51.698;-0.292;2023-02-28T08:23:46;7.70;;;2.70;;
76953;SDS011;65893;51.698;-0.292;2023-02-28T08:26:12;10.48;;;3.10;;
76953;SDS011;65893;51.698;-0.292;2023-02-28T08:28:38;8.65;;;3.00;;
76953;SDS011;65893;51.698;-0.292;2023-02-28T08:31:09;19.67;;;5.20;;
76953;SDS011;65893;51.698;-0.292;2023-02-28T08:33:35;8.05;;;2.88;;
76953;SDS011;65893;51.698;-0.292;2023-02-28T08:36:01;13.80;;;2.63;;
76953;SDS011;65893;51.698;-0.292;2023-02-28T08:38:28;3.17;;;1.52;;
76953;SDS011;65893;51.698;-0.292;2023-02-28T08:40:57;8.32;;;3.10;;
76953;SDS011;65893;51.698;-0.292;2023-02-28T08:43:24;13.02;;;3.42;;
76953;SDS011;65893;51.698;-0.292;2023-02-28T08:45:52;3.25;;;1.15;;
76953;SDS011;65893;51.698;-0.292;2023-02-28T08:48:18;3.45;;;1.50;;
76953;SDS011;65893;51.698;-0.292;2023-02-28T08:50:44;3.17;;;1.40;;
76953;SDS011;65893;51.698;-0.292;2023-02-28T08:53:10;4.05;;;1.92;;
76953;SDS011;65893;51.698;-0.292;2023-02-28T08:55:36;8.77;;;2.33;;
76953;SDS011;65893;51.698;-0.292;2023-02-28T08:58:02;0.90;;;0.35;;
76953;SDS011;65893;51.698;-0.292;2023-02-28T09:00:28;5.22;;;2.70;;
76953;SDS011;65893;51.698;-0.292;2023-02-28T09:02:54;7.13;;;2.85;;
76953;SDS011;65893;51.698;-0.292;2023-02-28T09:05:20;2.08;;;0.75;;
76953;SDS011;65893;51.698;-0.292;2023-02-28T09:07:46;25.23;;;4.38;;
76953;SDS011;65893;51.698;-0.292;2023-02-28T09:10:12;7.55;;;2.13;;
76953;SDS011;65893;51.698;-0.292;2023-02-28T09:12:38;5.20;;;2.17;;
76953;SDS011;65893;51.698;-0.292;2023-02-28T09:15:05;4.90;;;1.27;;
76953;SDS011;65893;51.698;-0.292;2023-02-28T09:17:31;5.50;;;2.20;;
76953;SDS011;65893;51.698;-0.292;2023-02-28T09:19:57;6.55;;;1.83;;
76953;SDS011;65893;51.698;-0.292;2023-02-28T09:22:23;2.67;;;1.17;;
76953;SDS011;65893;51.698;-0.292;2023-02-28T09:24:49;5.32;;;1.23;;
76953;SDS011;65893;51.698;-0.292;2023-02-28T09:27:15;1.92;;;0.90;;
76953;SDS011;65893;51.698;-0.292;2023-02-28T09:29:41;4.32;;;1.83;;
76953;SDS011;65893;51.698;-0.292;2023-02-28T09:32:07;3.50;;;1.05;;
76953;SDS011;65893;51.698;-0.292;2023-02-28T09:34:33;2.53;;;1.08;;
76953;SDS011;65893;51.698;-0.292;2023-02-28T09:37:02;3.83;;;1.25;;
76953;SDS011;65893;51.698;-0.292;2023-02-28T09:39:28;3.92;;;1.42;;
76953;SDS011;65893;51.698;-0.292;2023-02-28T09:41:54;7.15;;;2.00;;
76953;SDS011;65893;51.698;-0.292;2023-02-28T09:47:00;0.55;;;0.35;;
76953;SDS011;65893;51.698;-0.292;2023-02-28T09:49:34;4.50;;;1.17;;
76953;SDS011;65893;51.698;-0.292;2023-02-28T09:52:21;6.50;;;2.33;;
76953;SDS011;65893;51.698;-0.292;2023-02-28T09:54:52;3.80;;;1.23;;
76953;SDS011;65893;51.698;-0.292;2023-02-28T09:57:29;4.03;;;1.33;;
76953;SDS011;65893;51.698;-0.292;2023-02-28T10:00:02;1.75;;;1.02;;
76953;SDS011;65893;51.698;-0.292;2023-02-28T10:05:22;2.58;;;0.95;;
76953;SDS011;65893;51.698;-0.292;2023-02-28T10:07:58;2.88;;;1.23;;
76953;SDS011;65893;51.698;-0.292;2023-02-28T10:12:56;3.55;;;1.80;;
76953;SDS011;65893;51.698;-0.292;2023-02-28T10:15:24;2.80;;;1.13;;
76953;SDS011;65893;51.698;-0.292;2023-02-28T10:17:53;2.72;;;0.70;;
76953;SDS011;65893;51.698;-0.292;2023-02-28T10:20:20;2.05;;;1.17;;
76953;SDS011;65893;51.698;-0.292;2023-02-28T10:23:12;2.70;;;1.00;;
76953;SDS011;65893;51.698;-0.292;2023-02-28T10:25:40;1.90;;;0.90;;
76953;SDS011;65893;51.698;-0.292;2023-02-28T10:30:36;1.67;;;0.80;;
76953;SDS011;65893;51.698;-0.292;2023-02-28T10:33:03;1.95;;;0.93;;
76953;SDS011;65893;51.698;-0.292;2023-02-28T10:35:29;6.85;;;1.95;;
76953;SDS011;65893;51.698;-0.292;2023-02-28T10:37:56;4.07;;;1.55;;
76953;SDS011;65893;51.698;-0.292;2023-02-28T10:42:56;2.53;;;1.40;;
76953;SDS011;65893;51.698;-0.292;2023-02-28T10:45:22;2.53;;;1.10;;
76953;SDS011;65893;51.698;-0.292;2023-02-28T10:47:49;3.40;;;1.23;;
76953;SDS011;65893;51.698;-0.292;2023-02-28T10:50:27;4.28;;;1.63;;
76953;SDS011;65893;51.698;-0.292;2023-02-28T10:52:53;2.03;;;0.70;;
76953;SDS011;65893;51.698;-0.292;2023-02-28T10:55:24;8.32;;;2.47;;
76953;SDS011;65893;51.698;-0.292;2023-02-28T10:57:50;6.60;;;2.55;;
76953;SDS011;65893;51.698;-0.292;2023-02-28T11:00:24;6.80;;;2.47;;
76953;SDS011;65893;51.698;-0.292;2023-02-28T11:02:50;6.65;;;2.97;;
76953;SDS011;65893;51.698;-0.292;2023-02-28T11:05:30;5.22;;;2.35;;
76953;SDS011;65893;51.698;-0.292;2023-02-28T11:08:13;9.52;;;4.38;;
76953;SDS011;65893;51.698;-0.292;2023-02-28T11:10:43;10.88;;;5.00;;
76953;SDS011;65893;51.698;-0.292;2023-02-28T11:13:16;8.73;;;3.75;;
76953;SDS011;65893;51.698;-0.292;2023-02-28T11:15:43;4.07;;;2.00;;
76953;SDS011;65893;51.698;-0.292;2023-02-28T11:20:47;8.90;;;4.07;;
76953;SDS011;65893;51.698;-0.292;2023-02-28T11:23:15;5.82;;;2.97;;
76953;SDS011;65893;51.698;-0.292;2023-02-28T11:25:53;4.93;;;2.08;;
76953;SDS011;65893;51.698;-0.292;2023-02-28T11:36:08;7.05;;;2.53;;
76953;SDS011;65893;51.698;-0.292;2023-02-28T11:38:35;5.15;;;2.03;;
76953;SDS011;65893;51.698;-0.292;2023-02-28T11:41:08;3.78;;;1.40;;
76953;SDS011;65893;51.698;-0.292;2023-02-28T11:49:10;6.78;;;3.25;;
76953;SDS011;65893;51.698;-0.292;2023-02-28T11:51:46;7.78;;;3.60;;
76953;SDS011;65893;51.698;-0.292;2023-02-28T11:56:48;6.15;;;2.42;;
76953;SDS011;65893;51.698;-0.292;2023-02-28T12:06:57;10.25;;;2.65;;
76953;SDS011;65893;51.698;-0.292;2023-02-28T12:19:38;4.13;;;1.08;;
76953;SDS011;65893;51.698;-0.292;2023-02-28T12:22:17;4.13;;;1.00;;
76953;SDS011;65893;51.698;-0.292;2023-02-28T12:27:29;0.93;;;0.40;;
76953;SDS011;65893;51.698;-0.292;2023-02-28T12:30:02;2.83;;;0.90;;
76953;SDS011;65893;51.698;-0.292;2023-02-28T12:32:33;2.03;;;0.98;;
76953;SDS011;65893;51.698;-0.292;2023-02-28T12:35:02;3.60;;;1.30;;
76953;SDS011;65893;51.698;-0.292;2023-02-28T12:38:14;1.20;;;0.80;;
76953;SDS011;65893;51.698;-0.292;2023-02-28T12:40:26;3.13;;;1.10;;
76953;SDS011;65893;51.698;-0.292;2023-02-28T12:42:54;5.03;;;1.90;;
76953;SDS011;65893;51.698;-0.292;2023-02-28T12:45:26;3.92;;;1.67;;
76953;SDS011;65893;51.698;-0.292;2023-02-28T12:48:13;5.20;;;1.42;;
76953;SDS011;65893;51.698;-0.292;2023-02-28T12:50:41;5.18;;;2.17;;
76953;SDS011;65893;51.698;-0.292;2023-02-28T12:53:15;2.03;;;0.95;;
76953;SDS011;65893;51.698;-0.292;2023-02-28T12:58:20;3.35;;;1.70;;
76953;SDS011;65893;51.698;-0.292;2023-02-28T13:11:27;4.55;;;1.88;;
76953;SDS011;65893;51.698;-0.292;2023-02-28T13:14:01;1.50;;;0.50;;
76953;SDS011;65893;51.698;-0.292;2023-02-28T13:16:27;3.53;;;1.20;;
76953;SDS011;65893;51.698;-0.292;2023-02-28T13:19:07;2.67;;;0.95;;
76953;SDS011;65893;51.698;-0.292;2023-02-28T13:24:03;3.85;;;1.33;;
76953;SDS011;65893;51.698;-0.292;2023-02-28T13:28:58;0.40;;;0.40;;
76953;SDS011;65893;51.698;-0.292;2023-02-28T13:31:25;1.02;;;0.30;;
76953;SDS011;65893;51.698;-0.292;2023-02-28T13:36:27;1.70;;;0.70;;
76953;SDS011;65893;51.698;-0.292;2023-02-28T13:38:56;0.40;;;0.40;;
76953;SDS011;65893;51.698;-0.292;2023-02-28T13:44:09;0.82;;;0.68;;
76953;SDS011;65893;51.698;-0.292;2023-02-28T13:47:23;8.20;;;0.77;;
76953;SDS011;65893;51.698;-0.292;2023-02-28T14:07:23;1.85;;;0.68;;
76953;SDS011;65893;51.698;-0.292;2023-02-28T14:10:18;0.88;;;0.45;;
76953;SDS011;65893;51.698;-0.292;2023-02-28T14:15:27;3.95;;;0.65;;
76953;SDS011;65893;51.698;-0.292;2023-02-28T14:17:57;0.75;;;0.45;;
76953;SDS011;65893;51.698;-0.292;2023-02-28T14:20:25;1.15;;;0.43;;
76953;SDS011;65893;51.698;-0.292;2023-02-28T14:22:54;5.05;;;0.95;;
76953;SDS011;65893;51.698;-0.292;2023-02-28T14:25:30;1.45;;;0.55;;
76953;SDS011;65893;51.698;-0.292;2023-02-28T14:33:13;1.13;;;0.57;;
76953;SDS011;65893;51.698;-0.292;2023-02-28T14:38:28;1.35;;;0.73;;
76953;SDS011;65893;51.698;-0.292;2023-02-28T14:40:56;4.30;;;1.35;;
76953;SDS011;65893;51.698;-0.292;2023-02-28T14:43:24;2.78;;;0.93;;
76953;SDS011;65893;51.698;-0.292;2023-02-28T14:45:51;2.58;;;1.55;;
76953;SDS011;65893;51.698;-0.292;2023-02-28T14:48:18;3.83;;;0.93;;
76953;SDS011;65893;51.698;-0.292;2023-02-28T14:50:48;1.65;;;0.75;;
76953;SDS011;65893;51.698;-0.292;2023-02-28T14:53:17;0.93;;;0.47;;
76953;SDS011;65893;51.698;-0.292;2023-02-28T14:55:45;1.35;;;0.50;;
76953;SDS011;65893;51.698;-0.292;2023-02-28T15:00:50;5.30;;;1.17;;
76953;SDS011;65893;51.698;-0.292;2023-02-28T15:03:19;1.88;;;1.10;;
76953;SDS011;65893;51.698;-0.292;2023-02-28T15:05:52;1.58;;;0.73;;
76953;SDS011;65893;51.698;-0.292;2023-02-28T15:08:19;2.30;;;0.93;;
76953;SDS011;65893;51.698;-0.292;2023-02-28T15:13:17;2.85;;;1.27;;
76953;SDS011;65893;51.698;-0.292;2023-02-28T15:20:51;1.15;;;0.65;;
76953;SDS011;65893;51.698;-0.292;2023-02-28T15:23:18;1.30;;;0.40;;
76953;SDS011;65893;51.698;-0.292;2023-02-28T15:25:45;0.30;;;0.30;;
76953;SDS011;65893;51.698;-0.292;2023-02-28T15:28:13;1.13;;;0.38;;
76953;SDS011;65893;51.698;-0.292;2023-02-28T15:30:40;0.40;;;0.30;;
76953;SDS011;65893;51.698;-0.292;2023-02-28T15:35:41;2.80;;;1.08;;
76953;SDS011;65893;51.698;-0.292;2023-02-28T15:38:21;1.13;;;0.63;;
76953;SDS011;65893;51.698;-0.292;2023-02-28T15:40:52;1.58;;;0.70;;
76953;SDS011;65893;51.698;-0.292;2023-02-28T15:45:58;2.03;;;0.57;;
76953;SDS011;65893;51.698;-0.292;2023-02-28T15:50:52;1.33;;;0.50;;
76953;SDS011;65893;51.698;-0.292;2023-02-28T15:53:21;1.48;;;0.52;;
76953;SDS011;65893;51.698;-0.292;2023-02-28T15:55:55;3.47;;;0.73;;
76953;SDS011;65893;51.698;-0.292;2023-02-28T15:58:23;0.75;;;0.40;;
76953;SDS011;65893;51.698;-0.292;2023-02-28T16:01:00;0.40;;;0.40;;
76953;SDS011;65893;51.698;-0.292;2023-02-28T16:03:32;0.45;;;0.45;;
76953;SDS011;65893;51.698;-0.292;2023-02-28T16:06:15;0.35;;;0.35;;
76953;SDS011;65893;51.698;-0.292;2023-02-28T16:08:47;1.88;;;0.70;;
76953;SDS011;65893;51.698;-0.292;2023-02-28T16:11:16;0.80;;;0.40;;
76953;SDS011;65893;51.698;-0.292;2023-02-28T16:13:42;0.68;;;0.38;;
76953;SDS011;65893;51.698;-0.292;2023-02-28T16:16:08;1.20;;;0.50;;
76953;SDS011;65893;51.698;-0.292;2023-02-28T16:18:34;2.47;;;0.45;;
76953;SDS011;65893;51.698;-0.292;2023-02-28T16:21:00;1.05;;;0.45;;
76953;SDS011;65893;51.698;-0.292;2023-02-28T16:23:26;0.82;;;0.40;;
76953;SDS011;65893;51.698;-0.292;2023-02-28T16:25:52;1.88;;;0.68;;
76953;SDS011;65893;51.698;-0.292;2023-02-28T16:28:26;0.70;;;0.38;;
76953;SDS011;65893;51.698;-0.292;2023-02-28T16:30:56;0.65;;;0.30;;
76953;SDS011;65893;51.698;-0.292;2023-02-28T16:33:22;0.43;;;0.40;;
76953;SDS011;65893;51.698;-0.292;2023-02-28T16:35:48;0.90;;;0.80;;
76953;SDS011;65893;51.698;-0.292;2023-02-28T16:38:14;0.32;;;0.25;;
76953;SDS011;65893;51.698;-0.292;2023-02-28T16:40:40;0.30;;;0.25;;
76953;SDS011;65893;51.698;-0.292;2023-02-28T16:43:07;1.08;;;0.40;;
76953;SDS011;65893;51.698;-0.292;2023-02-28T16:45:35;1.05;;;0.50;;
76953;SDS011;65893;51.698;-0.292;2023-02-28T16:48:01;0.77;;;0.47;;
76953;SDS011;65893;51.698;-0.292;2023-02-28T16:50:29;1.67;;;0.50;;
76953;SDS011;65893;51.698;-0.292;2023-02-28T16:52:55;0.50;;;0.17;;
76953;SDS011;65893;51.698;-0.292;2023-02-28T16:55:22;1.10;;;0.52;;
76953;SDS011;65893;51.698;-0.292;2023-02-28T16:57:59;0.95;;;0.40;;
76953;SDS011;65893;51.698;-0.292;2023-02-28T17:00:26;0.50;;;0.30;;
76953;SDS011;65893;51.698;-0.292;2023-02-28T17:02:53;1.05;;;0.60;;
76953;SDS011;65893;51.698;-0.292;2023-02-28T17:05:19;1.00;;;0.20;;
76953;SDS011;65893;51.698;-0.292;2023-02-28T17:07:46;0.60;;;0.43;;
76953;SDS011;65893;51.698;-0.292;2023-02-28T17:10:20;0.65;;;0.40;;
76953;SDS011;65893;51.698;-0.292;2023-02-28T17:12:46;2.92;;;0.55;;
76953;SDS011;65893;51.698;-0.292;2023-02-28T17:15:13;0.47;;;0.20;;
76953;SDS011;65893;51.698;-0.292;2023-02-28T17:17:40;0.98;;;0.30;;
76953;SDS011;65893;51.698;-0.292;2023-02-28T17:20:07;1.52;;;0.52;;
76953;SDS011;65893;51.698;-0.292;2023-02-28T17:22:36;0.90;;;0.45;;
76953;SDS011;65893;51.698;-0.292;2023-02-28T17:25:03;2.25;;;0.60;;
76953;SDS011;65893;51.698;-0.292;2023-02-28T17:27:29;1.40;;;0.35;;
76953;SDS011;65893;51.698;-0.292;2023-02-28T17:29:55;5.88;;;0.95;;
76953;SDS011;65893;51.698;-0.292;2023-02-28T17:32:21;1.48;;;0.40;;
76953;SDS011;65893;51.698;-0.292;2023-02-28T17:34:48;1.45;;;0.82;;
76953;SDS011;65893;51.698;-0.292;2023-02-28T17:37:14;2.45;;;0.63;;
76953;SDS011;65893;51.698;-0.292;2023-02-28T17:39:41;0.88;;;0.45;;
76953;SDS011;65893;51.698;-0.292;2023-02-28T17:42:07;0.25;;;0.25;;
76953;SDS011;65893;51.698;-0.292;2023-02-28T17:44:33;0.45;;;0.38;;
76953;SDS011;65893;51.698;-0.292;2023-02-28T17:46:59;1.38;;;0.47;;
76953;SDS011;65893;51.698;-0.292;2023-02-28T17:49:25;1.83;;;0.70;;
76953;SDS011;65893;51.698;-0.292;2023-02-28T17:51:51;1.67;;;0.35;;
76953;SDS011;65893;51.698;-0.292;2023-02-28T17:54:17;1.20;;;0.40;;
76953;SDS011;65893;51.698;-0.292;2023-02-28T17:56:43;0.50;;;0.50;;
76953;SDS011;65893;51.698;-0.292;2023-02-28T17:59:09;1.85;;;0.85;;
76953;SDS011;65893;51.698;-0.292;2023-02-28T18:01:36;0.90;;;0.40;;
76953;SDS011;65893;51.698;-0.292;2023-02-28T18:04:02;1.40;;;0.73;;
76953;SDS011;65893;51.698;-0.292;2023-02-28T18:06:29;1.75;;;0.43;;
76953;SDS011;65893;51.698;-0.292;2023-02-28T18:08:56;0.57;;;0.40;;
76953;SDS011;65893;51.698;-0.292;2023-02-28T18:11:23;0.65;;;0.43;;
76953;SDS011;65893;51.698;-0.292;2023-02-28T18:13:53;0.52;;;0.50;;
76953;SDS011;65893;51.698;-0.292;2023-02-28T18:16:23;0.95;;;0.45;;
76953;SDS011;65893;51.698;-0.292;2023-02-28T18:18:49;0.47;;;0.25;;
76953;SDS011;65893;51.698;-0.292;2023-02-28T18:21:15;2.85;;;0.98;;